Time;durP1;ratioP1;P1;durP2;ratioP2;P2;SDS_P1;SDS_P2;PMS_P1;PMS_P2;Temp;Humidity;BMP_temperature;BMP_pressure;BME280_temperature;BME280_humidity;BME280_pressure;Samples;Min_cycle;Max_cycle;Signal;HPM_P1;HPM_P2
2023/03/15 00:00:57;;;;;;;;;;;;;;;;;;2058198;28;20374;-95
2023/03/15 00:01:58;;;;;;;;;;;;;;;;;;2070706;28;19933;-94
2023/03/15 00:02:58;;;;;;;;;;;;;;;;;;2076133;28;19928;-94
2023/03/15 00:03:59;;;;;;;;;;;;;;;;;;2071901;28;19918;-95
2023/03/15 00:04:59;;;;;;;;;;;;;;;;;;2058534;28;19920;-95
2023/03/15 00:05:59;;;;;;;;;;;;;;;;;;2058750;28;19914;-95
2023/03/15 00:07:00;;;;;;;;;;;;;;;;;;2067260;28;20000;-95
2023/03/15 00:08:00;;;;;;;;;;;;;;;;;;2067373;28;20293;-94
2023/03/15 00:09:01;;;;;;;;;;;;;;;;;;2061622;28;19921;-94
2023/03/15 00:10:01;;;;;;;;;;;;;;;;;;2061103;28;19949;-94
2023/03/15 00:11:02;;;;;;;;;;;;;;;;;;2067805;28;19909;-96
2023/03/15 00:12:02;;;;;;;;;;;;;;;;;;2058552;28;19910;-93
2023/03/15 00:13:02;;;;;;;;;;;;;;;;;;2066041;28;19917;-95
2023/03/15 00:14:04;;;;;;;;;;;;;;;;;;2058081;28;19925;-95
2023/03/15 00:15:04;;;;;;;;;;;;;;;;;;2065947;28;19913;-94
2023/03/15 00:16:05;;;;;;;;;;;;;;;;;;2057972;28;19910;-95
2023/03/15 00:17:05;;;;;;;;;;;;;;;;;;2066212;28;19910;-95
2023/03/15 00:18:05;;;;;;;;;;;;;;;;;;2058099;28;19917;-95
2023/03/15 00:19:06;;;;;;;;;;;;;;;;;;2071728;28;19915;-94
2023/03/15 00:20:06;;;;;;;;;;;;;;;;;;2067479;28;19898;-94
2023/03/15 00:21:06;;;;;;;;;;;;;;;;;;2076109;28;19936;-94
2023/03/15 00:22:07;;;;;;;;;;;;;;;;;;2075358;28;19906;-95
2023/03/15 00:23:08;;;;;;;;;;;;;;;;;;2061699;28;19914;-95
2023/03/15 00:24:10;;;;;;;;;;;;;;;;;;2076805;28;19916;-95
2023/03/15 00:25:10;;;;;;;;;;;;;;;;;;2076698;28;19909;-96
2023/03/15 00:26:11;;;;;;;;;;;;;;;;;;2066869;28;19913;-95
2023/03/15 00:27:11;;;;;;;;;;;;;;;;;;2067058;28;19943;-94
2023/03/15 00:28:12;;;;;;;;;;;;;;;;;;2059395;28;19910;-94
2023/03/15 00:29:12;;;;;;;;;;;;;;;;;;2074826;28;20023;-95
2023/03/15 00:30:13;;;;;;;;;;;;;;;;;;2074152;28;19987;-94
2023/03/15 00:31:13;;;;;;;;;;;;;;;;;;2066094;28;19910;-94
2023/03/15 00:32:13;;;;;;;;;;;;;;;;;;2066449;28;19945;-95
2023/03/15 00:33:14;;;;;;;;;;;;;;;;;;1724289;28;10000962;-94
2023/03/15 00:34:17;;;;;;;;;;;;;;;;;;2065994;28;19910;-95
2023/03/15 00:35:18;;;;;;;;;;;;;;;;;;2065754;28;20009;-94
2023/03/15 00:36:22;;;;;;;;;;;;;;;;;;2058328;28;19918;-94
2023/03/15 00:37:24;;;;;;;;;;;;;;;;;;2067275;28;20345;-95
2023/03/15 00:38:25;;;;;;;;;;;;;;;;;;2066510;28;19992;-96
2023/03/15 00:39:25;;;;;;;;;;;;;;;;;;2067258;28;19910;-95
2023/03/15 00:40:26;;;;;;;;;;;;;;;;;;2067443;28;19921;-96
2023/03/15 00:41:26;;;;;;;;;;;;;;;;;;2065680;28;19922;-95
2023/03/15 00:42:27;;;;;;;;;;;;;;;;;;2134626;23;19969;-95
2023/03/15 00:43:27;;;;;;;;;;;;;;;;;;2062917;28;20052;-94
2023/03/15 00:44:27;;;;;;;;;;;;;;;;;;2063523;28;19921;-93
2023/03/15 00:45:28;;;;;;;;;;;;;;;;;;2066528;28;19949;-96
2023/03/15 00:46:28;;;;;;;;;;;;;;;;;;2055585;28;19985;-86
2023/03/15 00:47:29;;;;;;;;;;;;;;;;;;2062948;28;20169;-85
2023/03/15 00:48:29;;;;;;;;;;;;;;;;;;2063432;28;19940;-85
2023/03/15 00:49:31;;;;;;;;;;;;;;;;;;2063687;28;19993;-86
2023/03/15 00:50:31;;;;;;;;;;;;;;;;;;2063562;28;20005;-86
2023/03/15 00:51:32;;;;;;;;;;;;;;;;;;2062471;28;19940;-85
2023/03/15 00:52:34;;;;;;;;;;;;;;;;;;2062690;28;19948;-86
2023/03/15 00:53:36;;;;;;;;;;;;;;;;;;2063514;28;20031;-86
2023/03/15 00:54:36;;;;;;;;;;;;;;;;;;2063772;28;19909;-86
2023/03/15 00:55:36;;;;;;;;;;;;;;;;;;2068323;28;19910;-85
2023/03/15 00:56:36;;;;;;;;;;;;;;;;;;2068318;28;19916;-85
2023/03/15 00:57:37;;;;;;;;;;;;;;;;;;2062629;28;19964;-86
2023/03/15 00:58:37;;;;;;;;;;;;;;;;;;2062614;28;20452;-86
2023/03/15 00:59:38;;;;;;;;;;;;;;;;;;2063707;28;20051;-85
2023/03/15 01:00:38;;;;;;;;;;;;;;;;;;2062711;28;19910;-86
2023/03/15 01:01:43;;;;;;;;;;;;;;;;;;2062787;28;20419;-86
2023/03/15 01:02:43;;;;;;;;;;;;;;;;;;2062390;28;19956;-85
2023/03/15 01:03:44;;;;;;;;;;;;;;;;;;2062374;28;20333;-86
2023/03/15 01:04:44;;;;;;;;;;;;;;;;;;2063292;28;19987;-85
2023/03/15 01:05:44;;;;;;;;;;;;;;;;;;2063423;28;19910;-85
2023/03/15 01:06:44;;;;;;;;;;;;;;;;;;2063962;28;20468;-85
2023/03/15 01:07:45;;;;;;;;;;;;;;;;;;2062684;28;19916;-85
2023/03/15 01:08:45;;;;;;;;;;;;;;;;;;2069799;28;19909;-84
2023/03/15 01:09:46;;;;;;;;;;;;;;;;;;2063613;28;19909;-85
2023/03/15 01:10:46;;;;;;;;;;;;;;;;;;2062638;28;19945;-84
2023/03/15 01:11:46;;;;;;;;;;;;;;;;;;2054673;28;20416;-86
2023/03/15 01:12:46;;;;;;;;;;;;;;;;;;2062621;28;19914;-85
2023/03/15 01:13:47;;;;;;;;;;;;;;;;;;2063299;28;19918;-87
2023/03/15 01:14:47;;;;;;;;;;;;;;;;;;2062544;28;19946;-86
2023/03/15 01:15:47;;;;;;;;;;;;;;;;;;2062765;28;19918;-86
2023/03/15 01:16:48;;;;;;;;;;;;;;;;;;2063324;28;20150;-86
2023/03/15 01:17:48;;;;;;;;;;;;;;;;;;2062575;28;19917;-86
2023/03/15 01:18:50;;;;;;;;;;;;;;;;;;1698588;28;10381294;-85
2023/03/15 01:19:50;;;;;;;;;;;;;;;;;;2054515;28;20122;-86
2023/03/15 01:20:50;;;;;;;;;;;;;;;;;;2054409;28;19910;-85
2023/03/15 01:21:52;;;;;;;;;;;;;;;;;;2054220;28;20053;-86
2023/03/15 01:22:52;;;;;;;;;;;;;;;;;;2062578;28;20662;-84
2023/03/15 01:23:52;;;;;;;;;;;;;;;;;;2062281;28;19910;-85
2023/03/15 01:24:53;;;;;;;;;;;;;;;;;;2062452;28;19910;-84
2023/03/15 01:25:53;;;;;;;;;;;;;;;;;;2063115;28;20198;-85
2023/03/15 01:26:53;;;;;;;;;;;;;;;;;;2063107;28;19976;-85
2023/03/15 01:27:54;;;;;;;;;;;;;;;;;;2063097;28;20001;-85
2023/03/15 01:28:54;;;;;;;;;;;;;;;;;;2062312;28;19910;-84
2023/03/15 01:29:54;;;;;;;;;;;;;;;;;;2062596;28;19910;-85
2023/03/15 01:30:55;;;;;;;;;;;;;;;;;;2062528;28;20024;-85
2023/03/15 01:31:55;;;;;;;;;;;;;;;;;;2062433;28;19952;-85
2023/03/15 01:32:55;;;;;;;;;;;;;;;;;;2062294;28;19909;-84
2023/03/15 01:33:56;;;;;;;;;;;;;;;;;;2062317;28;20052;-85
2023/03/15 01:34:56;;;;;;;;;;;;;;;;;;2070387;28;19916;-85
2023/03/15 01:36:00;;;;;;;;;;;;;;;;;;2070690;28;19909;-84
2023/03/15 01:37:01;;;;;;;;;;;;;;;;;;2063227;28;20548;-84
2023/03/15 01:38:02;;;;;;;;;;;;;;;;;;2063339;28;19917;-84
2023/03/15 01:39:02;;;;;;;;;;;;;;;;;;2063075;28;19909;-85
2023/03/15 01:40:05;;;;;;;;;;;;;;;;;;2063319;28;20012;-85
2023/03/15 01:41:05;;;;;;;;;;;;;;;;;;2063125;28;19964;-85
2023/03/15 01:42:06;;;;;;;;;;;;;;;;;;2063095;28;19987;-85
2023/03/15 01:43:06;;;;;;;;;;;;;;;;;;2062194;28;20306;-85
2023/03/15 01:44:11;;;;;;;;;;;;;;;;;;2054353;28;19925;-85
2023/03/15 01:45:30;;;;;;;;;;;;;;;;;;2062284;28;19916;-84
2023/03/15 01:46:33;;;;;;;;;;;;;;;;;;2062447;28;19940;-85
2023/03/15 01:47:33;;;;;;;;;;;;;;;;;;2062969;28;19916;-85
2023/03/15 01:48:43;;;;;;;;;;;;;;;;;;2067727;28;19976;-84
2023/03/15 01:49:45;;;;;;;;;;;;;;;;;;1703948;28;10332159;-85
2023/03/15 01:50:46;;;;;;;;;;;;;;;;;;2062195;28;19910;-85
2023/03/15 01:52:00;;;;;;;;;;;;;;;;;;2062937;28;19909;-84
2023/03/15 01:53:01;;;;;;;;;;;;;;;;;;2061977;28;20387;-85
2023/03/15 01:54:13;;;;;;;;;;;;;;;;;;2062212;28;20028;-85
2023/03/15 01:55:15;;;;;;;;;;;;;;;;;;2062903;28;20158;-86
2023/03/15 01:56:15;;;;;;;;;;;;;;;;;;2062869;28;20036;-86
2023/03/15 01:57:21;;;;;;;;;;;;;;;;;;2062081;28;19968;-85
2023/03/15 01:58:22;;;;;;;;;;;;;;;;;;2062185;28;19925;-85
2023/03/15 01:59:26;;;;;;;;;;;;;;;;;;2062321;28;20507;-85
2023/03/15 02:00:26;;;;;;;;;;;;;;;;;;2054531;28;19960;-85
2023/03/15 02:01:26;;;;;;;;;;;;;;;;;;2062136;28;19910;-85
2023/03/15 02:02:27;;;;;;;;;;;;;;;;;;2062208;28;20452;-85
2023/03/15 02:03:31;;;;;;;;;;;;;;;;;;2062257;28;19968;-85
2023/03/15 02:04:34;;;;;;;;;;;;;;;;;;1713738;28;10133440;-84
2023/03/15 02:05:37;;;;;;;;;;;;;;;;;;2062842;28;20008;-86
2023/03/15 02:06:37;;;;;;;;;;;;;;;;;;2062125;28;19976;-84
2023/03/15 02:07:48;;;;;;;;;;;;;;;;;;2062387;28;19913;-85
2023/03/15 02:08:50;;;;;;;;;;;;;;;;;;2065414;28;19933;-86
2023/03/15 02:10:09;;;;;;;;;;;;;;;;;;2063142;28;19968;-86
2023/03/15 02:11:10;;;;;;;;;;;;;;;;;;2065667;28;19914;-86
2023/03/15 02:12:10;;;;;;;;;;;;;;;;;;1711015;28;10206569;-85
2023/03/15 02:13:12;;;;;;;;;;;;;;;;;;2062257;28;19967;-86
2023/03/15 02:14:14;;;;;;;;;;;;;;;;;;2062705;28;20012;-85
2023/03/15 02:15:14;;;;;;;;;;;;;;;;;;2061349;28;20036;-86
2023/03/15 02:16:15;;;;;;;;;;;;;;;;;;2061983;28;19943;-86
2023/03/15 02:17:16;;;;;;;;;;;;;;;;;;2061941;28;19988;-86
2023/03/15 02:18:16;;;;;;;;;;;;;;;;;;2062228;28;19917;-85
2023/03/15 02:19:24;;;;;;;;;;;;;;;;;;1713848;28;10118829;-85
2023/03/15 02:20:34;;;;;;;;;;;;;;;;;;2062061;28;19926;-86
2023/03/15 02:21:34;;;;;;;;;;;;;;;;;;2061938;28;19909;-86
2023/03/15 02:22:48;;;;;;;;;;;;;;;;;;2061929;28;19914;-86
2023/03/15 02:23:52;;;;;;;;;;;;;;;;;;2062822;28;19921;-86
2023/03/15 02:25:06;;;;;;;;;;;;;;;;;;2062749;28;20378;-84
2023/03/15 02:26:06;;;;;;;;;;;;;;;;;;2062735;28;20389;-85
2023/03/15 02:27:06;;;;;;;;;;;;;;;;;;1709863;28;10258121;-85
2023/03/15 02:28:08;;;;;;;;;;;;;;;;;;2062816;28;20018;-85
2023/03/15 02:29:09;;;;;;;;;;;;;;;;;;2062846;28;20220;-85
2023/03/15 02:30:10;;;;;;;;;;;;;;;;;;2062865;28;19914;-85
2023/03/15 02:31:10;;;;;;;;;;;;;;;;;;2062092;28;19916;-85
2023/03/15 02:32:11;;;;;;;;;;;;;;;;;;2062046;28;20045;-84
2023/03/15 02:33:17;;;;;;;;;;;;;;;;;;2061793;28;19957;-84
2023/03/15 02:34:17;;;;;;;;;;;;;;;;;;2062296;28;20367;-86
2023/03/15 02:35:22;;;;;;;;;;;;;;;;;;2062639;28;19945;-85
2023/03/15 02:36:31;;;;;;;;;;;;;;;;;;2021177;28;10246414;-85
2023/03/15 02:37:32;;;;;;;;;;;;;;;;;;2062182;28;19963;-86
2023/03/15 02:38:32;;;;;;;;;;;;;;;;;;2053827;28;19941;-85
2023/03/15 02:39:32;;;;;;;;;;;;;;;;;;2061889;28;19929;-85
2023/03/15 02:40:32;;;;;;;;;;;;;;;;;;2062680;28;20444;-85
2023/03/15 02:41:34;;;;;;;;;;;;;;;;;;2066840;28;19917;-84
2023/03/15 02:42:34;;;;;;;;;;;;;;;;;;2066674;28;19914;-86
2023/03/15 02:43:35;;;;;;;;;;;;;;;;;;2062282;28;19913;-85
2023/03/15 02:44:37;;;;;;;;;;;;;;;;;;2054073;28;20385;-84
2023/03/15 02:45:38;;;;;;;;;;;;;;;;;;2062012;28;19929;-85
2023/03/15 02:46:39;;;;;;;;;;;;;;;;;;2062748;28;20377;-85
2023/03/15 02:47:39;;;;;;;;;;;;;;;;;;2062631;28;19918;-85
2023/03/15 02:48:40;;;;;;;;;;;;;;;;;;2062943;28;19914;-86
2023/03/15 02:49:43;;;;;;;;;;;;;;;;;;2062822;28;20280;-86
2023/03/15 02:50:44;;;;;;;;;;;;;;;;;;2062093;28;19976;-86
2023/03/15 02:51:44;;;;;;;;;;;;;;;;;;2062139;28;19940;-85
2023/03/15 02:52:45;;;;;;;;;;;;;;;;;;2062628;28;20382;-86
2023/03/15 02:53:45;;;;;;;;;;;;;;;;;;2062929;28;19932;-85
2023/03/15 02:54:45;;;;;;;;;;;;;;;;;;2061910;28;20423;-85
2023/03/15 02:55:45;;;;;;;;;;;;;;;;;;2061974;28;20360;-85
2023/03/15 02:56:46;;;;;;;;;;;;;;;;;;2061892;28;19997;-85
2023/03/15 02:57:47;;;;;;;;;;;;;;;;;;2061872;28;19910;-85
2023/03/15 02:58:47;;;;;;;;;;;;;;;;;;2062747;28;19913;-84
2023/03/15 02:59:49;;;;;;;;;;;;;;;;;;2069128;28;19937;-84
2023/03/15 03:00:51;;;;;;;;;;;;;;;;;;2069332;28;20095;-83
2023/03/15 03:01:51;;;;;;;;;;;;;;;;;;2061043;28;19918;-85
2023/03/15 03:02:52;;;;;;;;;;;;;;;;;;2064451;28;19914;-85
2023/03/15 03:03:52;;;;;;;;;;;;;;;;;;2064715;28;19922;-85
2023/03/15 03:04:52;;;;;;;;;;;;;;;;;;2063896;28;19921;-86
2023/03/15 03:05:52;;;;;;;;;;;;;;;;;;2066921;28;19967;-86
2023/03/15 03:06:53;;;;;;;;;;;;;;;;;;2065985;28;19985;-86
2023/03/15 03:07:54;;;;;;;;;;;;;;;;;;2065091;28;19977;-85
2023/03/15 03:08:54;;;;;;;;;;;;;;;;;;2063740;28;20012;-85
2023/03/15 03:09:54;;;;;;;;;;;;;;;;;;1717596;28;10001481;-86
2023/03/15 03:10:54;;;;;;;;;;;;;;;;;;2062167;28;20008;-86
2023/03/15 03:11:54;;;;;;;;;;;;;;;;;;2070200;28;19909;-85
2023/03/15 03:12:55;;;;;;;;;;;;;;;;;;2070129;28;20009;-86
2023/03/15 03:13:55;;;;;;;;;;;;;;;;;;2062573;28;20141;-85
2023/03/15 03:14:55;;;;;;;;;;;;;;;;;;2062511;28;20048;-86
2023/03/15 03:15:59;;;;;;;;;;;;;;;;;;2062563;28;20009;-86
2023/03/15 03:17:00;;;;;;;;;;;;;;;;;;2061709;28;19910;-86
2023/03/15 03:18:00;;;;;;;;;;;;;;;;;;1706631;28;10122163;-85
2023/03/15 03:19:00;;;;;;;;;;;;;;;;;;2061593;28;19917;-85
2023/03/15 03:20:01;;;;;;;;;;;;;;;;;;2062424;28;19921;-85
2023/03/15 03:21:05;;;;;;;;;;;;;;;;;;2062436;28;19913;-85
2023/03/15 03:22:05;;;;;;;;;;;;;;;;;;2061679;28;19922;-85
2023/03/15 03:23:05;;;;;;;;;;;;;;;;;;2058031;28;19914;-86
2023/03/15 03:24:05;;;;;;;;;;;;;;;;;;2071281;28;19910;-86
2023/03/15 03:25:08;;;;;;;;;;;;;;;;;;2070880;28;19905;-85
2023/03/15 03:26:15;;;;;;;;;;;;;;;;;;2067574;28;19917;-85
2023/03/15 03:27:16;;;;;;;;;;;;;;;;;;2067389;28;19909;-85
2023/03/15 03:28:16;;;;;;;;;;;;;;;;;;2065841;28;20047;-85
2023/03/15 03:29:16;;;;;;;;;;;;;;;;;;2064365;28;20347;-86
2023/03/15 03:30:16;;;;;;;;;;;;;;;;;;2063989;28;19984;-86
2023/03/15 03:31:18;;;;;;;;;;;;;;;;;;2063365;28;19914;-85
2023/03/15 03:32:18;;;;;;;;;;;;;;;;;;2064284;28;19910;-86
2023/03/15 03:33:19;;;;;;;;;;;;;;;;;;2064113;28;19991;-86
2023/03/15 03:34:19;;;;;;;;;;;;;;;;;;2068232;28;20001;-86
2023/03/15 03:35:19;;;;;;;;;;;;;;;;;;2071512;28;19917;-86
2023/03/15 03:36:20;;;;;;;;;;;;;;;;;;2064465;28;19917;-86
2023/03/15 03:37:20;;;;;;;;;;;;;;;;;;2063463;28;20032;-86
2023/03/15 03:38:22;;;;;;;;;;;;;;;;;;2063615;28;19909;-86
2023/03/15 03:39:22;;;;;;;;;;;;;;;;;;2064165;28;20099;-86
2023/03/15 03:40:22;;;;;;;;;;;;;;;;;;2064411;28;20021;-86
2023/03/15 03:41:23;;;;;;;;;;;;;;;;;;2064050;28;19917;-86
2023/03/15 03:42:23;;;;;;;;;;;;;;;;;;2063745;28;20521;-86
2023/03/15 03:43:24;;;;;;;;;;;;;;;;;;1716113;28;10087430;-86
2023/03/15 03:44:24;;;;;;;;;;;;;;;;;;2064419;28;19941;-85
2023/03/15 03:45:25;;;;;;;;;;;;;;;;;;2064245;28;20008;-86
2023/03/15 03:46:27;;;;;;;;;;;;;;;;;;2064215;28;20369;-86
2023/03/15 03:47:27;;;;;;;;;;;;;;;;;;2064230;28;19909;-86
2023/03/15 03:48:28;;;;;;;;;;;;;;;;;;2064176;28;20384;-86
2023/03/15 03:49:28;;;;;;;;;;;;;;;;;;2064142;28;20157;-86
2023/03/15 03:50:28;;;;;;;;;;;;;;;;;;2064180;28;19981;-86
2023/03/15 03:51:29;;;;;;;;;;;;;;;;;;2064135;28;19910;-86
2023/03/15 03:52:29;;;;;;;;;;;;;;;;;;2063270;28;20442;-86
2023/03/15 03:53:30;;;;;;;;;;;;;;;;;;2063567;28;19952;-86
2023/03/15 03:54:30;;;;;;;;;;;;;;;;;;2064125;28;20403;-85
2023/03/15 03:55:32;;;;;;;;;;;;;;;;;;2064160;28;19910;-85
2023/03/15 03:56:33;;;;;;;;;;;;;;;;;;2063646;28;19949;-86
2023/03/15 03:57:33;;;;;;;;;;;;;;;;;;2055453;28;19918;-85
2023/03/15 03:58:33;;;;;;;;;;;;;;;;;;2063115;28;19933;-85
2023/03/15 03:59:33;;;;;;;;;;;;;;;;;;2063305;28;19991;-85
2023/03/15 04:00:34;;;;;;;;;;;;;;;;;;2065578;28;19996;-86
2023/03/15 04:01:34;;;;;;;;;;;;;;;;;;2063080;28;19997;-86
2023/03/15 04:02:35;;;;;;;;;;;;;;;;;;2063062;28;19959;-86
2023/03/15 04:03:35;;;;;;;;;;;;;;;;;;2064036;28;19975;-85
2023/03/15 04:04:35;;;;;;;;;;;;;;;;;;2063310;28;19910;-86
2023/03/15 04:05:35;;;;;;;;;;;;;;;;;;2063150;28;19959;-86
2023/03/15 04:06:36;;;;;;;;;;;;;;;;;;2063006;28;20067;-85
2023/03/15 04:07:37;;;;;;;;;;;;;;;;;;2063299;28;19917;-86
2023/03/15 04:08:37;;;;;;;;;;;;;;;;;;2063863;28;19917;-85
2023/03/15 04:09:40;;;;;;;;;;;;;;;;;;1830434;28;10260515;-85
2023/03/15 04:10:41;;;;;;;;;;;;;;;;;;2064185;28;19913;-86
2023/03/15 04:11:42;;;;;;;;;;;;;;;;;;2064076;28;20395;-86
2023/03/15 04:12:42;;;;;;;;;;;;;;;;;;2063124;28;19914;-86
2023/03/15 04:13:44;;;;;;;;;;;;;;;;;;2063037;28;20313;-85
2023/03/15 04:14:45;;;;;;;;;;;;;;;;;;2063853;28;20297;-85
2023/03/15 04:15:46;;;;;;;;;;;;;;;;;;2063800;28;19948;-85
2023/03/15 04:16:46;;;;;;;;;;;;;;;;;;2062959;28;19914;-85
2023/03/15 04:17:47;;;;;;;;;;;;;;;;;;2063035;28;19910;-85
2023/03/15 04:18:47;;;;;;;;;;;;;;;;;;2063755;28;19925;-85
2023/03/15 04:19:48;;;;;;;;;;;;;;;;;;2063005;28;19910;-86
2023/03/15 04:20:48;;;;;;;;;;;;;;;;;;2065665;28;19975;-86
2023/03/15 04:21:48;;;;;;;;;;;;;;;;;;2063159;28;20141;-86
2023/03/15 04:22:48;;;;;;;;;;;;;;;;;;2071414;28;20384;-86
2023/03/15 04:23:49;;;;;;;;;;;;;;;;;;2063232;28;20147;-86
2023/03/15 04:24:49;;;;;;;;;;;;;;;;;;2063424;28;19918;-84
2023/03/15 04:25:50;;;;;;;;;;;;;;;;;;2063093;28;20438;-85
2023/03/15 04:26:56;;;;;;;;;;;;;;;;;;2064819;28;19957;-85
2023/03/15 04:28:01;;;;;;;;;;;;;;;;;;2071283;28;19937;-84
2023/03/15 04:29:02;;;;;;;;;;;;;;;;;;2064432;28;19909;-84
2023/03/15 04:30:04;;;;;;;;;;;;;;;;;;2063880;28;19909;-85
2023/03/15 04:31:09;;;;;;;;;;;;;;;;;;2064172;28;20375;-85
2023/03/15 04:32:09;;;;;;;;;;;;;;;;;;2063366;28;19933;-85
2023/03/15 04:33:10;;;;;;;;;;;;;;;;;;2063302;28;19968;-86
2023/03/15 04:34:10;;;;;;;;;;;;;;;;;;2063910;28;19914;-86
2023/03/15 04:35:10;;;;;;;;;;;;;;;;;;2063983;28;19913;-85
2023/03/15 04:36:17;;;;;;;;;;;;;;;;;;2063792;28;20349;-85
2023/03/15 04:37:17;;;;;;;;;;;;;;;;;;2066624;28;19910;-85
2023/03/15 04:38:18;;;;;;;;;;;;;;;;;;2062242;28;19910;-85
2023/03/15 04:39:18;;;;;;;;;;;;;;;;;;2057500;28;19913;-85
2023/03/15 04:40:19;;;;;;;;;;;;;;;;;;2062919;28;20369;-86
2023/03/15 04:41:19;;;;;;;;;;;;;;;;;;2062914;28;19932;-85
2023/03/15 04:42:20;;;;;;;;;;;;;;;;;;2054668;28;19917;-85
2023/03/15 04:43:23;;;;;;;;;;;;;;;;;;2062959;28;19929;-86
2023/03/15 04:44:25;;;;;;;;;;;;;;;;;;2063575;28;20437;-86
2023/03/15 04:45:27;;;;;;;;;;;;;;;;;;2063627;28;19910;-86
2023/03/15 04:46:29;;;;;;;;;;;;;;;;;;2063737;28;19913;-86
2023/03/15 04:47:31;;;;;;;;;;;;;;;;;;2063719;28;20424;-86
2023/03/15 04:48:31;;;;;;;;;;;;;;;;;;2063792;28;19910;-85
2023/03/15 04:49:32;;;;;;;;;;;;;;;;;;2063707;28;19948;-85
2023/03/15 04:50:32;;;;;;;;;;;;;;;;;;2063575;28;19956;-85
2023/03/15 04:51:33;;;;;;;;;;;;;;;;;;2062969;28;20056;-86
2023/03/15 04:52:33;;;;;;;;;;;;;;;;;;2062906;28;19909;-86
2023/03/15 04:53:33;;;;;;;;;;;;;;;;;;2062926;28;20321;-86
2023/03/15 04:54:34;;;;;;;;;;;;;;;;;;2062854;28;19933;-86
2023/03/15 04:55:34;;;;;;;;;;;;;;;;;;2063595;28;19983;-86
2023/03/15 04:56:36;;;;;;;;;;;;;;;;;;2062787;28;19920;-86
2023/03/15 04:57:36;;;;;;;;;;;;;;;;;;2062793;28;20266;-85
2023/03/15 04:58:36;;;;;;;;;;;;;;;;;;2063527;28;20412;-86
2023/03/15 04:59:37;;;;;;;;;;;;;;;;;;2063547;28;19917;-84
2023/03/15 05:00:37;;;;;;;;;;;;;;;;;;2062885;28;20260;-86
2023/03/15 05:01:37;;;;;;;;;;;;;;;;;;2063032;28;20330;-84
2023/03/15 05:02:40;;;;;;;;;;;;;;;;;;2063106;28;20019;-86
2023/03/15 05:03:40;;;;;;;;;;;;;;;;;;2062952;28;20388;-86
2023/03/15 05:04:41;;;;;;;;;;;;;;;;;;2063776;28;19955;-86
2023/03/15 05:05:43;;;;;;;;;;;;;;;;;;2063439;28;19914;-86
2023/03/15 05:06:43;;;;;;;;;;;;;;;;;;2063842;28;19910;-86
2023/03/15 05:07:43;;;;;;;;;;;;;;;;;;2063058;28;19979;-85
2023/03/15 05:08:44;;;;;;;;;;;;;;;;;;2062988;28;19973;-86
2023/03/15 05:09:45;;;;;;;;;;;;;;;;;;2071101;28;19911;-85
2023/03/15 05:10:45;;;;;;;;;;;;;;;;;;2062817;28;20533;-86
2023/03/15 05:11:45;;;;;;;;;;;;;;;;;;2062853;28;20427;-86
2023/03/15 05:12:45;;;;;;;;;;;;;;;;;;2062823;28;20019;-84
2023/03/15 05:13:46;;;;;;;;;;;;;;;;;;2062805;28;20582;-84
2023/03/15 05:14:46;;;;;;;;;;;;;;;;;;2070751;28;20240;-85
2023/03/15 05:15:46;;;;;;;;;;;;;;;;;;2062710;28;19921;-86
2023/03/15 05:16:48;;;;;;;;;;;;;;;;;;1710255;28;10244752;-86
2023/03/15 05:17:48;;;;;;;;;;;;;;;;;;2062533;28;19905;-86
2023/03/15 05:18:48;;;;;;;;;;;;;;;;;;2063253;28;20392;-86
2023/03/15 05:19:48;;;;;;;;;;;;;;;;;;2064422;28;19983;-86
2023/03/15 05:20:49;;;;;;;;;;;;;;;;;;2070411;28;19976;-85
2023/03/15 05:21:49;;;;;;;;;;;;;;;;;;2066559;28;19916;-86
2023/03/15 05:22:52;;;;;;;;;;;;;;;;;;2063490;28;19918;-86
2023/03/15 05:23:52;;;;;;;;;;;;;;;;;;2062458;28;19913;-86
2023/03/15 05:24:52;;;;;;;;;;;;;;;;;;2062784;28;19987;-86
2023/03/15 05:25:54;;;;;;;;;;;;;;;;;;2063443;28;19909;-86
2023/03/15 05:26:54;;;;;;;;;;;;;;;;;;2062534;28;20365;-86
2023/03/15 05:27:54;;;;;;;;;;;;;;;;;;2054496;28;20000;-86
2023/03/15 05:28:55;;;;;;;;;;;;;;;;;;2062560;28;19913;-86
2023/03/15 05:29:55;;;;;;;;;;;;;;;;;;2063721;28;20004;-86
2023/03/15 05:30:55;;;;;;;;;;;;;;;;;;2063163;28;20008;-85
2023/03/15 05:31:58;;;;;;;;;;;;;;;;;;2063597;28;19910;-86
2023/03/15 05:32:58;;;;;;;;;;;;;;;;;;2063198;28;19916;-86
2023/03/15 05:34:03;;;;;;;;;;;;;;;;;;2063503;28;20580;-85
2023/03/15 05:35:04;;;;;;;;;;;;;;;;;;2063139;28;19951;-87
2023/03/15 05:36:04;;;;;;;;;;;;;;;;;;2063393;28;19917;-86
2023/03/15 05:37:04;;;;;;;;;;;;;;;;;;2062495;28;20486;-86
2023/03/15 05:38:05;;;;;;;;;;;;;;;;;;2054408;28;20028;-86
2023/03/15 05:39:05;;;;;;;;;;;;;;;;;;1706122;28;10163530;-86
2023/03/15 05:40:09;;;;;;;;;;;;;;;;;;2062591;28;19944;-87
2023/03/15 05:41:09;;;;;;;;;;;;;;;;;;2063268;28;20007;-86
2023/03/15 05:42:09;;;;;;;;;;;;;;;;;;2063270;28;19940;-86
2023/03/15 05:43:10;;;;;;;;;;;;;;;;;;2062447;28;19928;-86
2023/03/15 05:44:10;;;;;;;;;;;;;;;;;;2054523;28;20246;-86
2023/03/15 05:45:11;;;;;;;;;;;;;;;;;;2062902;28;20383;-84
2023/03/15 05:46:11;;;;;;;;;;;;;;;;;;2071254;28;20141;-85
2023/03/15 05:47:11;;;;;;;;;;;;;;;;;;2073079;28;19913;-86
2023/03/15 05:48:11;;;;;;;;;;;;;;;;;;2072712;28;19917;-85
2023/03/15 05:49:12;;;;;;;;;;;;;;;;;;2066945;28;20457;-87
2023/03/15 05:50:12;;;;;;;;;;;;;;;;;;2061662;28;19957;-86
2023/03/15 05:51:12;;;;;;;;;;;;;;;;;;2066037;28;19914;-85
2023/03/15 05:52:12;;;;;;;;;;;;;;;;;;2056771;28;19917;-86
2023/03/15 05:53:13;;;;;;;;;;;;;;;;;;2056277;28;19999;-85
2023/03/15 05:54:13;;;;;;;;;;;;;;;;;;2063876;28;19948;-84
2023/03/15 05:55:36;;;;;;;;;;;;;;;;;;2061239;28;19914;-86
2023/03/15 05:56:36;;;;;;;;;;;;;;;;;;2057207;28;20170;-85
2023/03/15 05:57:36;;;;;;;;;;;;;;;;;;2053775;28;19913;-85
2023/03/15 05:58:37;;;;;;;;;;;;;;;;;;2062052;28;19949;-86
2023/03/15 05:59:38;;;;;;;;;;;;;;;;;;2069815;28;20313;-86
2023/03/15 06:00:46;;;;;;;;;;;;;;;;;;2061758;28;19914;-86
2023/03/15 06:01:46;;;;;;;;;;;;;;;;;;2061809;28;19909;-86
2023/03/15 06:03:06;;;;;;;;;;;;;;;;;;2063317;28;19937;-86
2023/03/15 06:04:07;;;;;;;;;;;;;;;;;;2063022;28;19941;-84
2023/03/15 06:05:07;;;;;;;;;;;;;;;;;;2062169;28;20344;-85
2023/03/15 06:06:07;;;;;;;;;;;;;;;;;;2068038;28;19972;-86
2023/03/15 06:07:08;;;;;;;;;;;;;;;;;;2081594;28;19928;-85
2023/03/15 06:08:08;;;;;;;;;;;;;;;;;;2073167;28;19940;-85
2023/03/15 06:09:08;;;;;;;;;;;;;;;;;;2069961;28;19945;-85
2023/03/15 06:10:10;;;;;;;;;;;;;;;;;;2064747;28;19914;-85
2023/03/15 06:11:10;;;;;;;;;;;;;;;;;;2062833;28;20031;-84
2023/03/15 06:12:10;;;;;;;;;;;;;;;;;;2062216;28;19945;-84
2023/03/15 06:13:11;;;;;;;;;;;;;;;;;;2063684;28;20297;-83
2023/03/15 06:14:11;;;;;;;;;;;;;;;;;;2058712;28;19933;-84
2023/03/15 06:15:11;;;;;;;;;;;;;;;;;;2064471;28;19910;-84
2023/03/15 06:16:11;;;;;;;;;;;;;;;;;;2062801;28;20023;-86
2023/03/15 06:17:12;;;;;;;;;;;;;;;;;;2062806;28;20150;-85
2023/03/15 06:18:12;;;;;;;;;;;;;;;;;;2062456;28;19910;-85
2023/03/15 06:19:13;;;;;;;;;;;;;;;;;;1719930;28;10001124;-85
2023/03/15 06:20:13;;;;;;;;;;;;;;;;;;2061082;28;19921;-85
2023/03/15 06:21:16;;;;;;;;;;;;;;;;;;2069129;28;19996;-85
2023/03/15 06:22:19;;;;;;;;;;;;;;;;;;2068967;28;20388;-85
2023/03/15 06:23:19;;;;;;;;;;;;;;;;;;2062136;28;19914;-85
2023/03/15 06:24:19;;;;;;;;;;;;;;;;;;2077573;28;20367;-85
2023/03/15 06:25:20;;;;;;;;;;;;;;;;;;2077553;28;19912;-86
2023/03/15 06:26:21;;;;;;;;;;;;;;;;;;2077494;28;19919;-85
2023/03/15 06:27:22;;;;;;;;;;;;;;;;;;2077541;28;19948;-85
2023/03/15 06:28:22;;;;;;;;;;;;;;;;;;2078266;28;20418;-85
2023/03/15 06:29:22;;;;;;;;;;;;;;;;;;2084320;28;20016;-85
2023/03/15 06:30:30;;;;;;;;;;;;;;;;;;2085218;28;19909;-85
2023/03/15 06:31:30;;;;;;;;;;;;;;;;;;2085468;28;19948;-84
2023/03/15 06:32:31;;;;;;;;;;;;;;;;;;2085474;28;20383;-85
2023/03/15 06:33:31;;;;;;;;;;;;;;;;;;1727048;28;10240272;-86
2023/03/15 06:34:31;;;;;;;;;;;;;;;;;;2080417;28;20196;-86
2023/03/15 06:35:31;;;;;;;;;;;;;;;;;;2078728;28;19909;-86
2023/03/15 06:36:32;;;;;;;;;;;;;;;;;;2078261;28;19916;-86
2023/03/15 06:37:35;;;;;;;;;;;;;;;;;;2078064;28;20300;-85
2023/03/15 06:38:35;;;;;;;;;;;;;;;;;;2077794;28;20071;-86
2023/03/15 06:39:36;;;;;;;;;;;;;;;;;;2062391;28;20358;-86
2023/03/15 06:40:36;;;;;;;;;;;;;;;;;;2078507;28;19916;-86
2023/03/15 06:41:37;;;;;;;;;;;;;;;;;;2070451;28;20285;-86
2023/03/15 06:42:38;;;;;;;;;;;;;;;;;;2070513;28;19964;-86
2023/03/15 06:43:38;;;;;;;;;;;;;;;;;;2078753;28;20248;-85
2023/03/15 06:44:39;;;;;;;;;;;;;;;;;;2070418;28;20490;-85
2023/03/15 06:45:39;;;;;;;;;;;;;;;;;;2070466;28;19913;-85
2023/03/15 06:46:40;;;;;;;;;;;;;;;;;;2070395;28;20380;-86
2023/03/15 06:47:40;;;;;;;;;;;;;;;;;;2070727;28;20383;-87
2023/03/15 06:48:40;;;;;;;;;;;;;;;;;;2078295;28;20295;-85
2023/03/15 06:49:40;;;;;;;;;;;;;;;;;;2070252;28;19920;-87
2023/03/15 06:50:41;;;;;;;;;;;;;;;;;;2062326;28;19987;-86
2023/03/15 06:51:43;;;;;;;;;;;;;;;;;;2066585;28;19914;-86
2023/03/15 06:52:44;;;;;;;;;;;;;;;;;;2063980;28;19909;-85
2023/03/15 06:53:44;;;;;;;;;;;;;;;;;;2063331;28;19909;-85
2023/03/15 06:54:44;;;;;;;;;;;;;;;;;;2062982;28;20013;-86
2023/03/15 06:55:45;;;;;;;;;;;;;;;;;;2054819;28;19918;-86
2023/03/15 06:56:45;;;;;;;;;;;;;;;;;;2062734;28;19920;-86
2023/03/15 06:57:46;;;;;;;;;;;;;;;;;;2062704;28;19960;-86